Time,TemperatureF,DewpointF,PressureIn,WindDirection,WindDirectionDegrees,WindSpeedMPH,WindSpeedGustMPH,Humidity,HourlyPrecipIn,Conditions,Clouds,dailyrainin,SoftwareType,DateUTC
2013-05-30 00:01:00,68.2,63.9,30.12,WNW,289,0.0,1.0,86,0.00,,,0.00,meteohub,2013-05-30 04:01:00,
2013-05-30 00:06:00,68.0,64.0,30.11,WNW,290,0.0,1.0,87,0.00,,,0.00,meteohub,2013-05-30 04:06:00,
2013-05-30 00:11:00,67.8,63.9,30.11,WNW,290,0.0,0.0,87,0.00,,,0.00,meteohub,2013-05-30 04:11:00,
2013-05-30 00:16:00,67.8,63.9,30.11,WNW,290,0.0,0.0,87,0.00,,,0.00,meteohub,2013-05-30 04:16:00,
2013-05-30 00:21:00,67.8,63.9,30.11,WNW,290,0.0,1.0,87,0.00,,,0.00,meteohub,2013-05-30 04:21:00,
2013-05-30 00:26:00,67.6,63.7,30.11,WNW,290,0.0,1.0,87,0.00,,,0.00,meteohub,2013-05-30 04:26:00,
2013-05-30 00:31:00,67.6,63.7,30.11,WNW,290,0.0,0.0,87,0.00,,,0.00,meteohub,2013-05-30 04:31:00,
2013-05-30 00:36:00,67.5,63.5,30.11,WNW,290,0.0,0.0,87,0.00,,,0.00,meteohub,2013-05-30 04:36:00,
2013-05-30 00:41:00,67.5,63.5,30.11,WNW,290,0.0,0.0,87,0.00,,,0.00,meteohub,2013-05-30 04:41:00,
2013-05-30 00:46:00,67.3,63.3,30.11,WNW,290,0.0,0.0,87,0.00,,,0.00,meteohub,2013-05-30 04:46:00,
2013-05-30 00:51:00,67.1,63.1,30.11,WNW,290,0.0,0.0,87,0.00,,,0.00,meteohub,2013-05-30 04:51:00,
2013-05-30 00:57:00,66.9,63.0,30.10,WNW,290,0.0,0.0,87,0.00,,,0.00,meteohub,2013-05-30 04:57:00,
2013-05-30 01:02:00,66.7,63.1,30.11,WNW,290,0.0,1.0,88,0.00,,,0.00,meteohub,2013-05-30 05:02:00,
2013-05-30 01:07:00,66.7,63.1,30.10,WNW,290,0.0,1.0,88,0.00,,,0.00,meteohub,2013-05-30 05:07:00,
2013-05-30 01:12:00,66.6,63.0,30.11,WNW,290,0.0,1.0,88,0.00,,,0.00,meteohub,2013-05-30 05:12:00,
2013-05-30 01:17:00,66.6,63.1,30.10,WNW,290,0.0,1.0,89,0.00,,,0.00,meteohub,2013-05-30 05:17:00,
2013-05-30 01:22:00,66.4,63.0,30.10,WNW,290,0.0,0.0,89,0.00,,,0.00,meteohub,2013-05-30 05:22:00,
2013-05-30 01:27:00,66.4,63.0,30.11,WNW,290,0.0,0.0,89,0.00,,,0.00,meteohub,2013-05-30 05:27:00,
2013-05-30 01:32:00,66.4,62.8,30.11,WNW,289,0.0,0.0,88,0.00,,,0.00,meteohub,2013-05-30 05:32:00,
2013-05-30 01:37:00,66.2,62.8,30.11,WNW,290,1.0,1.0,89,0.00,,,0.00,meteohub,2013-05-30 05:37:00,
2013-05-30 01:42:00,66.2,62.8,30.11,WNW,290,0.0,1.0,89,0.00,,,0.00,meteohub,2013-05-30 05:42:00,
2013-05-30 01:47:00,66.0,62.6,30.11,WNW,290,0.0,1.0,89,0.00,,,0.00,meteohub,2013-05-30 05:47:00,
2013-05-30 01:52:00,66.0,62.6,30.11,WNW,290,0.0,1.0,89,0.00,,,0.00,meteohub,2013-05-30 05:52:00,
2013-05-30 01:57:00,65.8,62.4,30.11,WNW,290,0.0,1.0,89,0.00,,,0.00,meteohub,2013-05-30 05:57:00,
2013-05-30 02:02:00,65.7,62.2,30.11,WNW,290,0.0,1.0,89,0.00,,,0.00,meteohub,2013-05-30 06:02:00,
2013-05-30 02:07:00,65.5,62.4,30.11,WNW,290,0.0,1.0,90,0.00,,,0.00,meteohub,2013-05-30 06:07:00,
2013-05-30 02:12:00,65.5,62.4,30.12,WNW,289,0.0,1.0,90,0.00,,,0.00,meteohub,2013-05-30 06:12:00,
2013-05-30 02:17:00,65.3,62.2,30.12,WNW,290,0.0,1.0,90,0.00,,,0.00,meteohub,2013-05-30 06:17:00,
2013-05-30 02:22:00,65.1,62.1,30.11,WNW,289,0.0,1.0,90,0.00,,,0.00,meteohub,2013-05-30 06:22:00,
2013-05-30 02:27:00,65.3,62.2,30.11,West,260,0.0,0.0,90,0.00,,,0.00,meteohub,2013-05-30 06:27:00,
2013-05-30 02:32:00,65.5,62.4,30.12,West,264,0.0,1.0,90,0.00,,,0.00,meteohub,2013-05-30 06:32:00,
2013-05-30 02:37:00,65.7,62.6,30.12,West,264,0.0,1.0,90,0.00,,,0.00,meteohub,2013-05-30 06:37:00,
2013-05-30 02:42:00,65.7,62.6,30.12,West,264,0.0,1.0,90,0.00,,,0.00,meteohub,2013-05-30 06:42:00,
2013-05-30 02:47:00,65.8,62.4,30.12,West,264,0.0,1.0,89,0.00,,,0.00,meteohub,2013-05-30 06:47:00,
2013-05-30 02:52:00,65.8,62.4,30.12,West,264,0.0,1.0,89,0.00,,,0.00,meteohub,2013-05-30 06:52:00,
2013-05-30 02:57:00,65.8,62.4,30.12,West,264,0.0,1.0,89,0.00,,,0.00,meteohub,2013-05-30 06:57:00,
2013-05-30 03:02:00,65.8,62.4,30.12,West,264,0.0,1.0,89,0.00,,,0.00,meteohub,2013-05-30 07:02:00,
2013-05-30 03:07:00,65.8,62.4,30.13,West,264,0.0,0.0,89,0.00,,,0.00,meteohub,2013-05-30 07:07:00,
2013-05-30 03:12:00,65.8,62.4,30.12,NW,304,0.0,1.0,89,0.00,,,0.00,meteohub,2013-05-30 07:12:00,
2013-05-30 03:17:00,65.7,62.6,30.13,NW,304,0.0,2.0,90,0.00,,,0.00,meteohub,2013-05-30 07:17:00,
2013-05-30 03:22:00,65.7,62.6,30.13,NW,304,0.0,2.0,90,0.00,,,0.00,meteohub,2013-05-30 07:22:00,
2013-05-30 03:27:00,65.7,62.6,30.13,NW,304,0.0,2.0,90,0.00,,,0.00,meteohub,2013-05-30 07:27:00,
2013-05-30 03:32:00,65.7,62.6,30.13,NW,304,0.0,1.0,90,0.00,,,0.00,meteohub,2013-05-30 07:32:00,
2013-05-30 03:37:00,65.5,62.4,30.13,WNW,303,0.0,0.0,90,0.00,,,0.00,meteohub,2013-05-30 07:37:00,
2013-05-30 03:42:00,65.5,62.4,30.14,NW,304,0.0,0.0,90,0.00,,,0.00,meteohub,2013-05-30 07:42:00,
2013-05-30 03:47:00,65.1,62.1,30.13,NW,304,0.0,0.0,90,0.00,,,0.00,meteohub,2013-05-30 07:47:00,
2013-05-30 03:52:00,64.9,61.9,30.13,NW,304,0.0,0.0,90,0.00,,,0.00,meteohub,2013-05-30 07:52:00,
2013-05-30 03:57:00,64.9,62.2,30.13,NW,304,0.0,0.0,91,0.00,,,0.00,meteohub,2013-05-30 07:57:00,
2013-05-30 04:02:00,64.8,62.1,30.13,NW,304,0.0,0.0,91,0.00,,,0.00,meteohub,2013-05-30 08:02:00,
2013-05-30 04:07:00,64.8,62.1,30.13,NW,304,0.0,0.0,91,0.00,,,0.00,meteohub,2013-05-30 08:07:00,
2013-05-30 04:12:00,64.8,62.1,30.14,NW,304,0.0,0.0,91,0.00,,,0.00,meteohub,2013-05-30 08:12:00,
2013-05-30 04:17:00,64.6,61.9,30.14,NW,304,0.0,0.0,91,0.00,,,0.00,meteohub,2013-05-30 08:17:00,
2013-05-30 04:22:00,64.6,61.9,30.14,WNW,303,0.0,0.0,91,0.00,,,0.00,meteohub,2013-05-30 08:22:00,
2013-05-30 04:27:00,64.6,61.9,30.14,WNW,303,0.0,0.0,91,0.00,,,0.00,meteohub,2013-05-30 08:27:00,
2013-05-30 04:32:00,64.4,62.1,30.14,NW,304,0.0,0.0,92,0.00,,,0.00,meteohub,2013-05-30 08:32:00,
2013-05-30 04:37:00,64.2,61.9,30.14,NW,304,0.0,0.0,92,0.00,,,0.00,meteohub,2013-05-30 08:37:00,
2013-05-30 04:42:00,64.2,61.9,30.14,NW,304,0.0,0.0,92,0.00,,,0.00,meteohub,2013-05-30 08:42:00,
2013-05-30 04:47:00,64.4,62.1,30.14,NW,304,0.0,1.0,92,0.00,,,0.00,meteohub,2013-05-30 08:47:00,
2013-05-30 04:52:00,64.4,62.1,30.14,NW,304,0.0,1.0,92,0.00,,,0.00,meteohub,2013-05-30 08:52:00,
2013-05-30 04:57:00,64.4,62.4,30.14,NW,304,0.0,1.0,93,0.00,,,0.00,meteohub,2013-05-30 08:57:00,
2013-05-30 05:02:00,64.2,62.2,30.15,NW,304,0.0,1.0,93,0.00,,,0.00,meteohub,2013-05-30 09:02:00,
2013-05-30 05:07:00,64.4,62.4,30.15,NW,304,0.0,1.0,93,0.00,,,0.00,meteohub,2013-05-30 09:07:00,
2013-05-30 05:12:00,64.2,62.2,30.15,NW,304,0.0,1.0,93,0.00,,,0.00,meteohub,2013-05-30 09:12:00,
2013-05-30 05:17:00,64.2,62.2,30.15,NW,304,0.0,1.0,93,0.00,,,0.00,meteohub,2013-05-30 09:17:00,
2013-05-30 05:22:00,64.4,62.4,30.15,NW,304,0.0,1.0,93,0.00,,,0.00,meteohub,2013-05-30 09:22:00,
2013-05-30 05:27:00,64.4,62.4,30.16,NW,304,0.0,1.0,93,0.00,,,0.00,meteohub,2013-05-30 09:27:00,
2013-05-30 05:32:00,64.6,62.4,30.16,NW,304,0.0,1.0,93,0.00,,,0.00,meteohub,2013-05-30 09:32:00,
2013-05-30 05:37:00,64.6,62.4,30.16,NW,304,0.0,1.0,93,0.00,,,0.00,meteohub,2013-05-30 09:37:00,
2013-05-30 05:42:00,64.8,62.6,30.17,WNW,303,0.0,1.0,93,0.00,,,0.00,meteohub,2013-05-30 09:42:00,
2013-05-30 05:47:00,64.9,62.8,30.17,NW,304,0.0,1.0,93,0.00,,,0.00,meteohub,2013-05-30 09:47:00,
2013-05-30 05:52:00,64.9,62.8,30.17,NW,304,0.0,1.0,93,0.00,,,0.00,meteohub,2013-05-30 09:52:00,
2013-05-30 05:57:00,65.1,63.0,30.17,NW,304,0.0,1.0,93,0.00,,,0.00,meteohub,2013-05-30 09:57:00,
2013-05-30 06:02:00,65.3,63.1,30.17,NW,304,0.0,0.0,93,0.00,,,0.00,meteohub,2013-05-30 10:02:00,
2013-05-30 06:07:00,65.5,63.3,30.17,NW,304,0.0,0.0,93,0.00,,,0.00,meteohub,2013-05-30 10:07:00,
2013-05-30 06:12:00,65.7,63.5,30.17,WNW,302,0.0,0.0,93,0.00,,,0.00,meteohub,2013-05-30 10:12:00,
2013-05-30 06:17:00,65.8,63.7,30.17,West,279,0.0,0.0,93,0.00,,,0.00,meteohub,2013-05-30 10:17:00,
2013-05-30 06:22:00,66.0,63.9,30.17,SW,228,0.0,1.0,93,0.00,,,0.00,meteohub,2013-05-30 10:22:00,
2013-05-30 06:27:00,66.2,63.9,30.18,SW,218,0.0,1.0,92,0.00,,,0.00,meteohub,2013-05-30 10:27:00,
2013-05-30 06:32:00,66.4,64.0,30.18,SW,224,0.0,1.0,92,0.00,,,0.00,meteohub,2013-05-30 10:32:00,
2013-05-30 06:37:00,66.6,64.2,30.18,WSW,247,0.0,1.0,92,0.00,,,0.00,meteohub,2013-05-30 10:37:00,
2013-05-30 06:42:00,66.6,64.2,30.18,NNE,12,0.0,1.0,92,0.00,,,0.00,meteohub,2013-05-30 10:42:00,
2013-05-30 06:47:00,66.6,64.2,30.18,NNE,12,0.0,1.0,92,0.00,,,0.00,meteohub,2013-05-30 10:47:00,
2013-05-30 06:52:00,66.6,64.2,30.18,West,274,0.0,1.0,92,0.00,,,0.00,meteohub,2013-05-30 10:52:00,
2013-05-30 06:57:00,66.7,64.4,30.19,SW,215,0.0,1.0,92,0.00,,,0.00,meteohub,2013-05-30 10:57:00,
2013-05-30 07:02:00,66.7,64.4,30.19,WSW,243,0.0,1.0,92,0.00,,,0.00,meteohub,2013-05-30 11:02:00,
2013-05-30 07:07:00,66.7,64.4,30.19,SE,141,0.0,1.0,92,0.00,,,0.00,meteohub,2013-05-30 11:07:00,
2013-05-30 07:12:00,66.7,64.6,30.19,SSE,167,0.0,1.0,93,0.00,,,0.00,meteohub,2013-05-30 11:12:00,
2013-05-30 07:17:00,66.7,64.6,30.19,WSW,245,0.0,1.0,93,0.00,,,0.00,meteohub,2013-05-30 11:17:00,
2013-05-30 07:22:00,66.7,64.6,30.19,WSW,245,0.0,1.0,93,0.00,,,0.00,meteohub,2013-05-30 11:22:00,
2013-05-30 07:27:00,66.6,64.8,30.19,WSW,245,0.0,1.0,94,0.00,,,0.00,meteohub,2013-05-30 11:27:00,
2013-05-30 07:32:00,66.6,64.8,30.19,WSW,245,0.0,1.0,94,0.00,,,0.00,meteohub,2013-05-30 11:32:00,
2013-05-30 07:37:00,66.6,64.8,30.20,WSW,245,0.0,0.0,94,0.00,,,0.00,meteohub,2013-05-30 11:37:00,
2013-05-30 07:42:00,66.6,64.8,30.20,WSW,245,0.0,1.0,94,0.00,,,0.00,meteohub,2013-05-30 11:42:00,
2013-05-30 07:47:00,66.6,64.8,30.20,WSW,245,0.0,1.0,94,0.00,,,0.00,meteohub,2013-05-30 11:47:00,
2013-05-30 07:52:00,66.6,64.8,30.20,WSW,238,0.0,1.0,94,0.00,,,0.00,meteohub,2013-05-30 11:52:00,
2013-05-30 07:57:00,66.7,64.9,30.20,WSW,238,0.0,1.0,94,0.00,,,0.00,meteohub,2013-05-30 11:57:00,
2013-05-30 08:02:00,66.7,64.9,30.20,SW,231,0.0,1.0,94,0.00,,,0.00,meteohub,2013-05-30 12:02:00,
2013-05-30 08:07:00,66.7,64.9,30.20,SSW,198,0.0,1.0,94,0.00,,,0.00,meteohub,2013-05-30 12:07:00,
2013-05-30 08:12:00,66.7,65.3,30.20,SSW,198,0.0,1.0,95,0.00,,,0.00,meteohub,2013-05-30 12:12:00,
2013-05-30 08:17:00,66.7,65.3,30.20,SSW,198,0.0,1.0,95,0.00,,,0.00,meteohub,2013-05-30 12:17:00,
2013-05-30 08:22:00,66.7,65.3,30.20,SW,221,0.0,1.0,95,0.00,,,0.00,meteohub,2013-05-30 12:22:00,
2013-05-30 08:27:00,66.7,65.3,30.20,SW,221,0.0,1.0,95,0.00,,,0.00,meteohub,2013-05-30 12:27:00,
2013-05-30 08:32:00,66.7,65.3,30.21,SW,221,0.0,1.0,95,0.00,,,0.00,meteohub,2013-05-30 12:32:00,
2013-05-30 08:37:00,66.7,65.3,30.20,SW,221,0.0,1.0,95,0.00,,,0.00,meteohub,2013-05-30 12:37:00,
2013-05-30 08:43:00,66.7,65.3,30.20,SW,221,0.0,1.0,95,0.00,,,0.00,meteohub,2013-05-30 12:43:00,
2013-05-30 08:48:00,66.9,65.5,30.20,SW,221,0.0,1.0,95,0.00,,,0.00,meteohub,2013-05-30 12:48:00,
2013-05-30 08:53:00,66.9,65.5,30.20,SW,221,0.0,1.0,95,0.00,,,0.00,meteohub,2013-05-30 12:53:00,
2013-05-30 08:58:00,67.1,65.7,30.21,SW,217,0.0,1.0,95,0.00,,,0.00,meteohub,2013-05-30 12:58:00,
2013-05-30 09:03:00,67.5,66.0,30.21,SSW,213,0.0,0.0,95,0.00,,,0.00,meteohub,2013-05-30 13:03:00,
2013-05-30 09:08:00,67.6,66.2,30.21,SSW,212,0.0,1.0,95,0.00,,,0.00,meteohub,2013-05-30 13:08:00,
2013-05-30 09:13:00,67.6,66.2,30.21,SSW,212,0.0,1.0,95,0.00,,,0.00,meteohub,2013-05-30 13:13:00,
2013-05-30 09:18:00,67.8,66.0,30.21,South,189,0.0,1.0,94,0.00,,,0.00,meteohub,2013-05-30 13:18:00,
2013-05-30 09:23:00,68.0,66.2,30.22,South,189,0.0,1.0,94,0.00,,,0.00,meteohub,2013-05-30 13:23:00,
2013-05-30 09:28:00,68.2,66.0,30.21,South,188,0.0,1.0,93,0.00,,,0.00,meteohub,2013-05-30 13:28:00,
2013-05-30 09:33:00,68.4,66.0,30.21,South,189,0.0,1.0,92,0.00,,,0.00,meteohub,2013-05-30 13:33:00,
2013-05-30 09:38:00,68.5,66.2,30.21,South,188,0.0,1.0,92,0.00,,,0.00,meteohub,2013-05-30 13:38:00,
2013-05-30 09:43:00,68.9,66.6,30.21,South,188,0.0,1.0,92,0.00,,,0.00,meteohub,2013-05-30 13:43:00,
2013-05-30 09:48:00,69.1,66.4,30.21,West,264,0.0,1.0,91,0.00,,,0.00,meteohub,2013-05-30 13:48:00,
2013-05-30 09:53:00,69.3,65.8,30.21,South,170,0.0,1.0,89,0.00,,,0.00,meteohub,2013-05-30 13:53:00,
2013-05-30 09:58:00,69.4,66.0,30.21,South,169,0.0,2.0,89,0.00,,,0.00,meteohub,2013-05-30 13:58:00,
2013-05-30 10:03:00,69.4,65.7,30.21,SSW,194,0.0,2.0,88,0.00,,,0.00,meteohub,2013-05-30 14:03:00,
2013-05-30 10:08:00,69.8,66.0,30.21,SSW,198,0.0,2.0,88,0.00,,,0.00,meteohub,2013-05-30 14:08:00,
2013-05-30 10:13:00,70.3,66.2,30.21,SSW,203,0.0,1.0,87,0.00,,,0.00,meteohub,2013-05-30 14:13:00,
2013-05-30 10:18:00,71.1,66.4,30.20,ESE,110,0.0,2.0,85,0.00,,,0.00,meteohub,2013-05-30 14:18:00,
2013-05-30 10:23:00,71.4,66.4,30.21,SSE,159,1.0,3.0,84,0.00,,,0.00,meteohub,2013-05-30 14:23:00,
2013-05-30 10:28:00,71.8,66.7,30.21,SSE,159,1.0,3.0,84,0.00,,,0.00,meteohub,2013-05-30 14:28:00,
2013-05-30 10:33:00,71.8,66.7,30.20,SSW,195,1.0,3.0,84,0.00,,,0.00,meteohub,2013-05-30 14:33:00,
2013-05-30 10:38:00,72.5,66.7,30.20,SSW,194,1.0,2.0,82,0.00,,,0.00,meteohub,2013-05-30 14:38:00,
2013-05-30 10:43:00,73.2,66.4,30.20,SSW,193,1.0,2.0,79,0.00,,,0.00,meteohub,2013-05-30 14:43:00,
2013-05-30 10:48:00,73.9,66.6,30.20,SSE,148,0.0,2.0,78,0.00,,,0.00,meteohub,2013-05-30 14:48:00,
2013-05-30 10:53:00,74.7,66.9,30.20,SSE,163,2.0,2.0,77,0.00,,,0.00,meteohub,2013-05-30 14:53:00,
2013-05-30 10:58:00,75.0,66.6,30.20,SSE,163,0.0,2.0,75,0.00,,,0.00,meteohub,2013-05-30 14:58:00,
2013-05-30 11:03:00,75.4,66.9,30.20,South,183,0.0,2.0,75,0.00,,,0.00,meteohub,2013-05-30 15:03:00,
2013-05-30 11:08:00,75.0,66.2,30.20,South,170,0.0,2.0,74,0.00,,,0.00,meteohub,2013-05-30 15:08:00,
2013-05-30 11:13:00,75.2,66.7,30.20,South,170,0.0,3.0,75,0.00,,,0.00,meteohub,2013-05-30 15:13:00,
2013-05-30 11:18:00,75.4,66.6,30.19,SSW,194,0.0,3.0,74,0.00,,,0.00,meteohub,2013-05-30 15:18:00,
2013-05-30 11:23:00,75.0,66.6,30.19,South,191,1.0,3.0,75,0.00,,,0.00,meteohub,2013-05-30 15:23:00,
2013-05-30 11:28:00,74.5,66.0,30.19,SSW,197,0.0,1.0,75,0.00,,,0.00,meteohub,2013-05-30 15:28:00,
2013-05-30 11:33:00,74.1,66.0,30.19,SSW,205,0.0,2.0,76,0.00,,,0.00,meteohub,2013-05-30 15:33:00,
2013-05-30 11:38:00,73.8,66.0,30.20,SSW,203,0.0,2.0,77,0.00,,,0.00,meteohub,2013-05-30 15:38:00,
2013-05-30 11:43:00,73.6,65.5,30.19,South,183,0.0,2.0,76,0.00,,,0.00,meteohub,2013-05-30 15:43:00,
2013-05-30 11:48:00,73.6,65.8,30.19,SW,226,0.0,2.0,77,0.00,,,0.00,meteohub,2013-05-30 15:48:00,
2013-05-30 11:53:00,73.9,66.6,30.19,SW,224,0.0,1.0,78,0.00,,,0.00,meteohub,2013-05-30 15:53:00,
2013-05-30 11:58:00,74.3,66.6,30.19,West,264,0.0,1.0,77,0.00,,,0.00,meteohub,2013-05-30 15:58:00,
2013-05-30 12:03:00,74.7,66.6,30.19,SSW,203,0.0,1.0,76,0.00,,,0.00,meteohub,2013-05-30 16:03:00,
2013-05-30 12:08:00,75.2,67.1,30.19,SSW,197,1.0,1.0,76,0.00,,,0.00,meteohub,2013-05-30 16:08:00,
2013-05-30 12:13:00,75.4,66.9,30.19,SW,219,0.0,2.0,75,0.00,,,0.00,meteohub,2013-05-30 16:13:00,
2013-05-30 12:19:00,75.6,67.1,30.19,South,183,0.0,2.0,75,0.00,,,0.00,meteohub,2013-05-30 16:19:00,
2013-05-30 12:24:00,76.1,67.3,30.19,SSE,163,1.0,2.0,74,0.00,,,0.00,meteohub,2013-05-30 16:24:00,
2013-05-30 12:29:00,76.6,66.9,30.19,South,170,1.0,2.0,72,0.00,,,0.00,meteohub,2013-05-30 16:29:00,
2013-05-30 12:34:00,77.2,67.5,30.18,NNW,342,0.0,2.0,72,0.00,,,0.00,meteohub,2013-05-30 16:34:00,
2013-05-30 12:39:00,77.0,66.4,30.18,SSE,159,0.0,3.0,70,0.00,,,0.00,meteohub,2013-05-30 16:39:00,
2013-05-30 12:44:00,77.4,68.0,30.18,NW,307,0.0,3.0,73,0.00,,,0.00,meteohub,2013-05-30 16:44:00,
2013-05-30 12:49:00,77.5,66.9,30.18,SW,215,0.0,2.0,70,0.00,,,0.00,meteohub,2013-05-30 16:49:00,
2013-05-30 12:54:00,77.5,67.5,30.18,NW,314,1.0,2.0,71,0.00,,,0.00,meteohub,2013-05-30 16:54:00,
2013-05-30 12:59:00,77.7,67.1,30.17,SSW,192,1.0,2.0,70,0.00,,,0.00,meteohub,2013-05-30 16:59:00,
2013-05-30 13:04:00,78.1,67.1,30.17,SW,214,0.0,4.0,69,0.00,,,0.00,meteohub,2013-05-30 17:04:00,
2013-05-30 13:09:00,78.6,67.1,30.17,SSE,163,0.0,4.0,68,0.00,,,0.00,meteohub,2013-05-30 17:09:00,
2013-05-30 13:14:00,79.5,67.6,30.17,SSE,158,0.0,3.0,67,0.00,,,0.00,meteohub,2013-05-30 17:14:00,
2013-05-30 13:19:00,79.9,66.6,30.17,SSW,204,1.0,2.0,64,0.00,,,0.00,meteohub,2013-05-30 17:19:00,
2013-05-30 13:24:00,79.7,66.9,30.17,NW,307,0.0,2.0,65,0.00,,,0.00,meteohub,2013-05-30 17:24:00,
2013-05-30 13:29:00,79.5,66.7,30.17,SE,137,0.0,2.0,65,0.00,,,0.00,meteohub,2013-05-30 17:29:00,
2013-05-30 13:34:00,79.9,67.1,30.17,South,170,2.0,2.0,65,0.00,,,0.00,meteohub,2013-05-30 17:34:00,
2013-05-30 13:39:00,80.1,67.3,30.17,SW,228,0.0,3.0,65,0.00,,,0.00,meteohub,2013-05-30 17:39:00,
2013-05-30 13:44:00,80.4,67.1,30.16,SE,138,2.0,3.0,64,0.00,,,0.00,meteohub,2013-05-30 17:44:00,
2013-05-30 13:49:00,80.8,67.5,30.16,SSW,195,0.0,3.0,64,0.00,,,0.00,meteohub,2013-05-30 17:49:00,
2013-05-30 13:54:00,81.0,67.1,30.16,SW,235,0.0,3.0,63,0.00,,,0.00,meteohub,2013-05-30 17:54:00,
2013-05-30 13:59:00,81.3,68.0,30.16,West,280,0.0,3.0,64,0.00,,,0.00,meteohub,2013-05-30 17:59:00,
2013-05-30 14:04:00,81.7,68.4,30.16,SSE,154,0.0,2.0,64,0.00,,,0.00,meteohub,2013-05-30 18:04:00,
2013-05-30 14:09:00,81.5,67.3,30.15,North,352,1.0,2.0,62,0.00,,,0.00,meteohub,2013-05-30 18:09:00,
2013-05-30 14:14:00,81.0,66.2,30.15,SW,229,0.0,3.0,61,0.00,,,0.00,meteohub,2013-05-30 18:14:00,
2013-05-30 14:19:00,81.0,65.3,30.15,South,191,2.0,3.0,59,0.00,,,0.00,meteohub,2013-05-30 18:19:00,
2013-05-30 14:24:00,81.1,66.0,30.14,South,175,0.0,3.0,60,0.00,,,0.00,meteohub,2013-05-30 18:24:00,
2013-05-30 14:29:00,81.9,66.6,30.14,WNW,300,1.0,4.0,60,0.00,,,0.00,meteohub,2013-05-30 18:29:00,
2013-05-30 14:34:00,82.2,66.4,30.14,East,99,2.0,4.0,59,0.00,,,0.00,meteohub,2013-05-30 18:34:00,
2013-05-30 14:39:00,82.4,65.7,30.14,West,264,0.0,2.0,57,0.00,,,0.00,meteohub,2013-05-30 18:39:00,
2013-05-30 14:45:00,82.6,66.4,30.14,SW,217,1.0,6.0,58,0.00,,,0.00,meteohub,2013-05-30 18:45:00,
2013-05-30 14:50:00,82.8,66.9,30.14,WNW,288,1.0,6.0,59,0.00,,,0.00,meteohub,2013-05-30 18:50:00,
2013-05-30 14:55:00,82.4,66.2,30.14,SW,222,1.0,2.0,58,0.00,,,0.00,meteohub,2013-05-30 18:55:00,
2013-05-30 15:00:00,82.0,65.8,30.14,NNW,333,0.0,2.0,58,0.00,,,0.00,meteohub,2013-05-30 19:00:00,
2013-05-30 15:05:00,81.5,65.3,30.14,WSW,250,0.0,3.0,58,0.00,,,0.00,meteohub,2013-05-30 19:05:00,
2013-05-30 15:10:00,81.3,65.1,30.13,SW,226,0.0,3.0,58,0.00,,,0.00,meteohub,2013-05-30 19:10:00,
2013-05-30 15:15:00,81.3,64.6,30.13,South,169,0.0,4.0,57,0.00,,,0.00,meteohub,2013-05-30 19:15:00,
2013-05-30 15:20:00,81.3,65.1,30.13,NNW,335,0.0,4.0,58,0.00,,,0.00,meteohub,2013-05-30 19:20:00,
2013-05-30 15:25:00,81.3,65.7,30.12,SSW,203,0.0,3.0,59,0.00,,,0.00,meteohub,2013-05-30 19:25:00,
2013-05-30 15:30:00,81.5,65.8,30.12,North,354,1.0,3.0,59,0.00,,,0.00,meteohub,2013-05-30 19:30:00,
2013-05-30 15:35:00,81.1,66.0,30.12,SSW,208,1.0,3.0,60,0.00,,,0.00,meteohub,2013-05-30 19:35:00,
2013-05-30 15:40:00,81.0,66.2,30.12,SSW,208,0.0,3.0,61,0.00,,,0.00,meteohub,2013-05-30 19:40:00,
2013-05-30 15:45:00,81.7,66.4,30.12,NNW,347,1.0,3.0,60,0.00,,,0.00,meteohub,2013-05-30 19:45:00,
2013-05-30 15:50:00,81.9,66.6,30.12,SW,232,0.0,3.0,60,0.00,,,0.00,meteohub,2013-05-30 19:50:00,
2013-05-30 15:55:00,81.9,66.6,30.12,West,272,1.0,3.0,60,0.00,,,0.00,meteohub,2013-05-30 19:55:00,
2013-05-30 16:00:00,81.9,66.2,30.12,WSW,238,0.0,3.0,59,0.00,,,0.00,meteohub,2013-05-30 20:00:00,
2013-05-30 16:05:00,82.0,66.7,30.11,South,172,0.0,3.0,60,0.00,,,0.00,meteohub,2013-05-30 20:05:00,
2013-05-30 16:10:00,82.0,65.8,30.11,SSW,203,0.0,2.0,58,0.00,,,0.00,meteohub,2013-05-30 20:10:00,
2013-05-30 16:15:00,82.0,65.8,30.11,SW,214,2.0,3.0,58,0.00,,,0.00,meteohub,2013-05-30 20:15:00,
2013-05-30 16:20:00,82.0,66.4,30.11,NNW,327,0.0,3.0,59,0.00,,,0.00,meteohub,2013-05-30 20:20:00,
2013-05-30 16:25:00,81.7,66.0,30.11,South,176,0.0,3.0,59,0.00,,,0.00,meteohub,2013-05-30 20:25:00,
2013-05-30 16:30:00,81.5,66.2,30.11,WNW,283,0.0,2.0,60,0.00,,,0.00,meteohub,2013-05-30 20:30:00,
2013-05-30 16:35:00,81.3,66.0,30.11,SSW,201,0.0,1.0,60,0.00,,,0.00,meteohub,2013-05-30 20:35:00,
2013-05-30 16:40:00,81.0,67.1,30.11,SSW,211,0.0,1.0,63,0.00,,,0.00,meteohub,2013-05-30 20:40:00,
2013-05-30 16:45:00,80.6,66.9,30.11,SSW,211,0.0,1.0,63,0.00,,,0.00,meteohub,2013-05-30 20:45:00,
2013-05-30 16:50:00,80.2,66.9,30.10,WSW,255,0.0,1.0,64,0.00,,,0.00,meteohub,2013-05-30 20:50:00,
2013-05-30 16:55:00,80.2,66.9,30.10,South,177,0.0,1.0,64,0.00,,,0.00,meteohub,2013-05-30 20:55:00,
2013-05-30 17:00:00,80.2,66.9,30.11,SW,231,0.0,1.0,64,0.00,,,0.00,meteohub,2013-05-30 21:00:00,
2013-05-30 17:05:00,80.4,66.7,30.10,NNW,328,1.0,3.0,63,0.00,,,0.00,meteohub,2013-05-30 21:05:00,
2013-05-30 17:10:00,80.2,66.9,30.11,SSW,207,0.0,3.0,64,0.00,,,0.00,meteohub,2013-05-30 21:10:00,
2013-05-30 17:15:00,80.2,66.9,30.10,SW,219,0.0,3.0,64,0.00,,,0.00,meteohub,2013-05-30 21:15:00,
2013-05-30 17:20:00,80.2,66.9,30.10,WNW,302,0.0,1.0,64,0.00,,,0.00,meteohub,2013-05-30 21:20:00,
2013-05-30 17:25:00,80.1,66.7,30.10,SSE,166,0.0,1.0,64,0.00,,,0.00,meteohub,2013-05-30 21:25:00,
2013-05-30 17:30:00,79.9,66.2,30.10,West,273,0.0,2.0,63,0.00,,,0.00,meteohub,2013-05-30 21:30:00,
2013-05-30 17:35:00,79.7,66.4,30.10,SW,229,1.0,2.0,64,0.00,,,0.00,meteohub,2013-05-30 21:35:00,
2013-05-30 17:40:00,79.9,66.6,30.09,North,9,0.0,2.0,64,0.00,,,0.00,meteohub,2013-05-30 21:40:00,
2013-05-30 17:45:00,79.9,66.6,30.09,SSW,212,0.0,2.0,64,0.00,,,0.00,meteohub,2013-05-30 21:45:00,
2013-05-30 17:50:00,79.9,67.5,30.09,West,273,0.0,2.0,66,0.00,,,0.00,meteohub,2013-05-30 21:50:00,
2013-05-30 17:55:00,79.7,66.9,30.09,SSW,205,0.0,1.0,65,0.00,,,0.00,meteohub,2013-05-30 21:55:00,
2013-05-30 18:00:00,79.7,67.3,30.09,SW,221,0.0,1.0,66,0.00,,,0.00,meteohub,2013-05-30 22:00:00,
2013-05-30 18:06:00,79.5,67.1,30.09,SW,215,0.0,1.0,66,0.00,,,0.00,meteohub,2013-05-30 22:06:00,
2013-05-30 18:11:00,79.5,67.1,30.09,SW,226,0.0,1.0,66,0.00,,,0.00,meteohub,2013-05-30 22:11:00,
2013-05-30 18:16:00,79.5,67.6,30.09,SW,226,0.0,1.0,67,0.00,,,0.00,meteohub,2013-05-30 22:16:00,
2013-05-30 18:21:00,79.5,67.1,30.09,SW,217,0.0,3.0,66,0.00,,,0.00,meteohub,2013-05-30 22:21:00,
2013-05-30 18:26:00,79.5,67.6,30.09,SSE,155,0.0,3.0,67,0.00,,,0.00,meteohub,2013-05-30 22:26:00,
2013-05-30 18:31:00,79.3,67.8,30.09,South,190,0.0,3.0,68,0.00,,,0.00,meteohub,2013-05-30 22:31:00,
2013-05-30 18:36:00,79.2,67.6,30.09,South,189,0.0,2.0,68,0.00,,,0.00,meteohub,2013-05-30 22:36:00,
2013-05-30 18:41:00,79.0,67.1,30.09,SW,233,0.0,1.0,67,0.00,,,0.00,meteohub,2013-05-30 22:41:00,
2013-05-30 18:46:00,78.6,66.7,30.09,SW,231,0.0,1.0,67,0.00,,,0.00,meteohub,2013-05-30 22:46:00,
2013-05-30 18:51:00,78.4,67.5,30.09,SW,231,0.0,1.0,69,0.00,,,0.00,meteohub,2013-05-30 22:51:00,
2013-05-30 18:56:00,78.3,67.6,30.09,SW,231,0.0,1.0,70,0.00,,,0.00,meteohub,2013-05-30 22:56:00,
2013-05-30 19:01:00,78.1,67.5,30.09,SW,231,0.0,1.0,70,0.00,,,0.00,meteohub,2013-05-30 23:01:00,
2013-05-30 19:06:00,77.7,66.7,30.09,SW,231,0.0,1.0,69,0.00,,,0.00,meteohub,2013-05-30 23:06:00,
2013-05-30 19:11:00,77.5,66.9,30.09,SSW,209,0.0,1.0,70,0.00,,,0.00,meteohub,2013-05-30 23:11:00,
2013-05-30 19:16:00,77.5,66.9,30.09,SSW,208,0.0,1.0,70,0.00,,,0.00,meteohub,2013-05-30 23:16:00,
2013-05-30 19:21:00,77.4,67.3,30.09,SW,217,0.0,1.0,71,0.00,,,0.00,meteohub,2013-05-30 23:21:00,
2013-05-30 19:26:00,77.2,67.1,30.09,SW,217,0.0,0.0,71,0.00,,,0.00,meteohub,2013-05-30 23:26:00,
2013-05-30 19:31:00,77.0,66.9,30.09,SW,216,0.0,0.0,71,0.00,,,0.00,meteohub,2013-05-30 23:31:00,
2013-05-30 19:36:00,76.8,67.1,30.09,SW,214,0.0,1.0,72,0.00,,,0.00,meteohub,2013-05-30 23:36:00,
2013-05-30 19:41:00,76.6,66.9,30.09,SW,219,0.0,1.0,72,0.00,,,0.00,meteohub,2013-05-30 23:41:00,
2013-05-30 19:46:00,76.5,67.1,30.09,WSW,253,0.0,1.0,73,0.00,,,0.00,meteohub,2013-05-30 23:46:00,
2013-05-30 19:51:00,76.5,67.1,30.09,WSW,240,0.0,1.0,73,0.00,,,0.00,meteohub,2013-05-30 23:51:00,
2013-05-30 19:56:00,76.3,67.5,30.09,WSW,239,0.0,1.0,74,0.00,,,0.00,meteohub,2013-05-30 23:56:00,
2013-05-30 20:01:00,75.9,67.5,30.09,WSW,239,0.0,1.0,75,0.00,,,0.00,meteohub,2013-05-31 00:01:00,
2013-05-30 20:06:00,75.7,67.3,30.09,WSW,239,0.0,1.0,75,0.00,,,0.00,meteohub,2013-05-31 00:06:00,
2013-05-30 20:11:00,75.6,67.5,30.09,WSW,239,0.0,0.0,76,0.00,,,0.00,meteohub,2013-05-31 00:11:00,
2013-05-30 20:16:00,75.6,67.5,30.09,WSW,240,0.0,0.0,76,0.00,,,0.00,meteohub,2013-05-31 00:16:00,
2013-05-30 20:21:00,75.4,67.3,30.09,WSW,240,0.0,0.0,76,0.00,,,0.00,meteohub,2013-05-31 00:21:00,
2013-05-30 20:26:00,75.0,67.3,30.09,WSW,239,0.0,0.0,77,0.00,,,0.00,meteohub,2013-05-31 00:26:00,
2013-05-30 20:31:00,74.8,67.1,30.09,WSW,239,0.0,0.0,77,0.00,,,0.00,meteohub,2013-05-31 00:31:00,
2013-05-30 20:36:00,74.8,67.1,30.09,WSW,244,0.0,0.0,77,0.00,,,0.00,meteohub,2013-05-31 00:36:00,
2013-05-30 20:41:00,74.7,67.3,30.09,WSW,242,0.0,0.0,78,0.00,,,0.00,meteohub,2013-05-31 00:41:00,
2013-05-30 20:46:00,74.5,67.1,30.09,WSW,242,0.0,0.0,78,0.00,,,0.00,meteohub,2013-05-31 00:46:00,
2013-05-30 20:51:00,74.1,66.7,30.09,WSW,242,0.0,0.0,78,0.00,,,0.00,meteohub,2013-05-31 00:51:00,
2013-05-30 20:56:00,73.9,66.6,30.09,WSW,242,0.0,0.0,78,0.00,,,0.00,meteohub,2013-05-31 00:56:00,
2013-05-30 21:01:00,73.8,66.9,30.09,WSW,242,0.0,0.0,79,0.00,,,0.00,meteohub,2013-05-31 01:01:00,
2013-05-30 21:06:00,73.6,67.1,30.09,WSW,242,0.0,0.0,80,0.00,,,0.00,meteohub,2013-05-31 01:06:00,
2013-05-30 21:12:00,73.2,66.7,30.09,WSW,242,0.0,0.0,80,0.00,,,0.00,meteohub,2013-05-31 01:12:00,
2013-05-30 21:17:00,73.0,66.6,30.09,WSW,242,0.0,0.0,80,0.00,,,0.00,meteohub,2013-05-31 01:17:00,
2013-05-30 21:22:00,72.9,66.7,30.09,WSW,243,0.0,0.0,81,0.00,,,0.00,meteohub,2013-05-31 01:22:00,
2013-05-30 21:27:00,72.9,66.7,30.10,WSW,242,0.0,0.0,81,0.00,,,0.00,meteohub,2013-05-31 01:27:00,
2013-05-30 21:32:00,72.7,66.6,30.10,WSW,242,0.0,0.0,81,0.00,,,0.00,meteohub,2013-05-31 01:32:00,
2013-05-30 21:37:00,72.3,66.6,30.09,WSW,242,0.0,1.0,82,0.00,,,0.00,meteohub,2013-05-31 01:37:00,
2013-05-30 21:42:00,72.3,66.6,30.10,WSW,242,0.0,1.0,82,0.00,,,0.00,meteohub,2013-05-31 01:42:00,
2013-05-30 21:47:00,72.1,66.4,30.09,WSW,242,0.0,1.0,82,0.00,,,0.00,meteohub,2013-05-31 01:47:00,
2013-05-30 21:52:00,72.0,66.2,30.10,WSW,242,0.0,0.0,82,0.00,,,0.00,meteohub,2013-05-31 01:52:00,
2013-05-30 21:57:00,71.8,66.4,30.10,WSW,242,0.0,0.0,83,0.00,,,0.00,meteohub,2013-05-31 01:57:00,
2013-05-30 22:02:00,71.6,66.2,30.10,WSW,242,0.0,0.0,83,0.00,,,0.00,meteohub,2013-05-31 02:02:00,
2013-05-30 22:07:00,71.4,66.0,30.10,WSW,242,0.0,0.0,83,0.00,,,0.00,meteohub,2013-05-31 02:07:00,
2013-05-30 22:12:00,71.2,65.8,30.11,WSW,242,0.0,0.0,83,0.00,,,0.00,meteohub,2013-05-31 02:12:00,
2013-05-30 22:17:00,71.2,66.2,30.11,WSW,242,0.0,0.0,84,0.00,,,0.00,meteohub,2013-05-31 02:17:00,
2013-05-30 22:22:00,71.1,66.0,30.11,WSW,242,0.0,0.0,84,0.00,,,0.00,meteohub,2013-05-31 02:22:00,
2013-05-30 22:27:00,70.9,65.8,30.11,WSW,242,0.0,0.0,84,0.00,,,0.00,meteohub,2013-05-31 02:27:00,
2013-05-30 22:32:00,70.7,65.7,30.11,WSW,242,0.0,0.0,84,0.00,,,0.00,meteohub,2013-05-31 02:32:00,
2013-05-30 22:37:00,70.5,65.8,30.11,WSW,242,0.0,0.0,85,0.00,,,0.00,meteohub,2013-05-31 02:37:00,
2013-05-30 22:42:00,70.3,65.7,30.11,WSW,242,0.0,0.0,85,0.00,,,0.00,meteohub,2013-05-31 02:42:00,
2013-05-30 22:47:00,70.2,65.5,30.11,WSW,242,0.0,0.0,85,0.00,,,0.00,meteohub,2013-05-31 02:47:00,
2013-05-30 22:52:00,70.2,65.5,30.11,WSW,242,0.0,0.0,85,0.00,,,0.00,meteohub,2013-05-31 02:52:00,
2013-05-30 22:57:00,70.0,65.3,30.11,WSW,242,0.0,0.0,85,0.00,,,0.00,meteohub,2013-05-31 02:57:00,
2013-05-30 23:02:00,69.8,65.5,30.11,WSW,242,0.0,0.0,86,0.00,,,0.00,meteohub,2013-05-31 03:02:00,
2013-05-30 23:07:00,69.6,65.3,30.11,WSW,242,0.0,0.0,86,0.00,,,0.00,meteohub,2013-05-31 03:07:00,
2013-05-30 23:12:00,69.4,65.1,30.11,WSW,243,0.0,1.0,86,0.00,,,0.00,meteohub,2013-05-31 03:12:00,
2013-05-30 23:17:00,69.3,65.3,30.11,WSW,242,0.0,1.0,87,0.00,,,0.00,meteohub,2013-05-31 03:17:00,
2013-05-30 23:22:00,69.3,64.9,30.12,WSW,242,0.0,0.0,86,0.00,,,0.00,meteohub,2013-05-31 03:22:00,
2013-05-30 23:27:00,69.1,64.8,30.12,WSW,242,0.0,0.0,86,0.00,,,0.00,meteohub,2013-05-31 03:27:00,
2013-05-30 23:32:00,69.1,64.8,30.12,WSW,243,0.0,0.0,86,0.00,,,0.00,meteohub,2013-05-31 03:32:00,
2013-05-30 23:37:00,69.3,65.3,30.12,WSW,242,0.0,0.0,87,0.00,,,0.00,meteohub,2013-05-31 03:37:00,
2013-05-30 23:42:00,69.3,64.9,30.12,WSW,242,0.0,1.0,86,0.00,,,0.00,meteohub,2013-05-31 03:42:00,
2013-05-30 23:47:00,69.3,64.9,30.12,WSW,242,0.0,1.0,86,0.00,,,0.00,meteohub,2013-05-31 03:47:00,
2013-05-30 23:52:00,69.1,64.8,30.12,WSW,242,0.0,0.0,86,0.00,,,0.00,meteohub,2013-05-31 03:52:00,
2013-05-30 23:57:00,68.9,64.6,30.12,WSW,242,0.0,0.0,86,0.00,,,0.00,meteohub,2013-05-31 03:57:00,